Time;durP1;ratioP1;P1;durP2;ratioP2;P2;SDS_P1;SDS_P2;PMS_P1;PMS_P2;Temp;Humidity;BMP_temperature;BMP_pressure;BME280_temperature;BME280_humidity;BME280_pressure;Samples;Min_cycle;Max_cycle;Signal;HPM_P1;HPM_P2
2024/01/22 00:01:14;;;;;;;6.57;3.07;;;2.40;80.30;;;;;;6332959;22;20613;-83
2024/01/22 00:03:43;;;;;;;5.47;4.90;;;2.30;80.30;;;;;;6330250;22;20176;-83
2024/01/22 00:06:12;;;;;;;5.80;2.50;;;2.30;80.30;;;;;;6332444;22;20205;-83
2024/01/22 00:08:41;;;;;;;1.90;1.80;;;2.20;80.30;;;;;;6333069;22;20164;-83
2024/01/22 00:11:12;;;;;;;4.77;2.90;;;2.20;80.40;;;;;;6332632;22;20222;-83
2024/01/22 00:13:40;;;;;;;3.60;3.30;;;2.10;80.50;;;;;;6326522;22;20169;-82
2024/01/22 00:16:09;;;;;;;3.40;3.10;;;2.10;80.70;;;;;;6328177;22;20438;-83
2024/01/22 00:18:38;;;;;;;2.40;2.23;;;2.00;80.70;;;;;;6332731;22;20173;-82
2024/01/22 00:21:06;;;;;;;3.00;2.10;;;2.00;80.90;;;;;;6329450;22;20691;-83
2024/01/22 00:23:35;;;;;;;4.43;2.87;;;1.90;80.90;;;;;;6326997;22;20829;-82
2024/01/22 00:26:04;;;;;;;3.20;2.50;;;1.90;81.10;;;;;;6331792;22;20170;-82
2024/01/22 00:28:34;;;;;;;9.93;4.30;;;1.90;81.10;;;;;;6332210;22;20174;-82
2024/01/22 00:31:02;;;;;;;3.83;2.03;;;1.80;81.10;;;;;;6332786;22;20489;-83
2024/01/22 00:33:31;;;;;;;1.83;1.73;;;1.80;81.20;;;;;;6331264;22;20447;-82
2024/01/22 00:35:59;;;;;;;2.87;2.50;;;1.70;81.30;;;;;;6330943;22;20174;-82
2024/01/22 00:38:28;;;;;;;3.03;2.83;;;1.70;81.30;;;;;;6333084;22;20678;-82
2024/01/22 00:40:55;;;;;;;2.93;2.23;;;1.60;81.30;;;;;;6332043;22;20172;-83
2024/01/22 00:43:24;;;;;;;2.30;1.90;;;1.60;81.50;;;;;;6329446;22;20519;-82
2024/01/22 00:45:54;;;;;;;1.73;1.63;;;1.50;81.40;;;;;;6331662;22;20227;-82
2024/01/22 00:48:23;;;;;;;2.83;2.63;;;1.50;81.50;;;;;;6334026;22;20186;-82
2024/01/22 00:50:52;;;;;;;4.23;3.37;;;1.40;81.40;;;;;;6331807;22;20168;-82
2024/01/22 00:53:20;;;;;;;2.97;2.77;;;1.40;81.50;;;;;;6329538;22;20671;-82
2024/01/22 00:55:49;;;;;;;1.10;1.10;;;1.40;81.60;;;;;;6331733;22;20258;-83
2024/01/22 00:58:17;;;;;;;6.23;3.50;;;1.30;81.90;;;;;;6333232;22;20169;-82
2024/01/22 01:00:46;;;;;;;1.50;1.40;;;1.30;82.00;;;;;;6331938;22;20174;-83
2024/01/22 01:03:16;;;;;;;2.30;2.17;;;1.30;81.90;;;;;;6329147;22;20552;-83
2024/01/22 01:05:45;;;;;;;2.30;2.20;;;1.20;81.80;;;;;;6330727;22;20224;-83
2024/01/22 01:08:14;;;;;;;2.17;2.07;;;1.20;81.70;;;;;;6332512;22;20654;-82
2024/01/22 01:10:42;;;;;;;2.57;1.80;;;1.10;81.60;;;;;;6332991;22;20477;-83
2024/01/22 01:13:11;;;;;;;1.17;1.10;;;1.00;81.40;;;;;;6327439;22;20191;-83
2024/01/22 01:15:39;;;;;;;3.57;3.23;;;1.00;81.40;;;;;;6333265;22;20211;-83
2024/01/22 01:18:08;;;;;;;9.07;2.47;;;0.90;81.30;;;;;;6334523;22;20203;-82
2024/01/22 01:20:39;;;;;;;3.30;0.90;;;0.80;81.30;;;;;;6331712;22;20168;-83
2024/01/22 01:23:07;;;;;;;2.80;2.43;;;0.70;81.30;;;;;;6326403;22;20183;-82
2024/01/22 01:25:37;;;;;;;4.70;2.87;;;0.70;81.40;;;;;;6331163;22;20275;-82
2024/01/22 01:28:06;;;;;;;5.03;4.30;;;0.70;81.50;;;;;;6332636;22;20210;-82
2024/01/22 01:30:34;;;;;;;2.47;2.27;;;0.60;81.50;;;;;;6331514;22;20211;-83
2024/01/22 01:33:03;;;;;;;4.90;3.13;;;0.60;81.60;;;;;;6329243;22;20164;-83
2024/01/22 01:35:31;;;;;;;2.23;2.03;;;0.50;81.80;;;;;;6330798;22;20172;-83
2024/01/22 01:38:02;;;;;;;6.70;2.87;;;0.50;82.10;;;;;;6334046;22;20192;-82
2024/01/22 01:40:30;;;;;;;2.63;2.43;;;0.40;82.10;;;;;;6331809;22;20511;-83
2024/01/22 01:42:59;;;;;;;4.47;4.10;;;0.40;82.20;;;;;;6331633;22;20165;-82
2024/01/22 01:45:28;;;;;;;6.73;4.10;;;0.40;82.30;;;;;;6330858;22;20164;-83
2024/01/22 01:47:56;;;;;;;5.17;3.47;;;0.40;82.10;;;;;;6330932;22;20168;-83
2024/01/22 01:50:25;;;;;;;2.90;2.70;;;0.40;82.10;;;;;;6330729;22;20525;-83
2024/01/22 01:52:55;;;;;;;1.80;1.70;;;0.40;81.90;;;;;;6328971;22;20605;-83
2024/01/22 01:55:25;;;;;;;1.77;1.67;;;0.40;82.00;;;;;;6330830;22;20169;-83
2024/01/22 01:57:55;;;;;;;2.33;2.20;;;0.40;82.00;;;;;;6332387;22;20279;-83
2024/01/22 02:00:32;;;;;;;2.23;2.03;;;0.40;82.10;;;;;;6333055;22;20250;-83
2024/01/22 02:03:02;;;;;;;2.23;2.10;;;0.40;82.10;;;;;;6334927;22;20171;-82
2024/01/22 02:05:31;;;;;;;2.00;0.97;;;0.40;82.10;;;;;;6342167;22;20227;-83
2024/01/22 02:08:00;;;;;;;4.83;2.23;;;0.40;82.10;;;;;;6351815;22;20159;-82
2024/01/22 02:10:30;;;;;;;2.80;2.33;;;0.30;82.00;;;;;;6347843;22;20638;-83
2024/01/22 02:13:01;;;;;;;0.87;0.87;;;0.30;81.90;;;;;;6330943;22;20171;-82
2024/01/22 02:15:30;;;;;;;5.27;2.30;;;0.30;81.90;;;;;;6330883;22;20188;-83
2024/01/22 02:18:00;;;;;;;1.87;1.53;;;0.30;81.90;;;;;;6331708;22;20199;-83
2024/01/22 02:20:29;;;;;;;2.10;1.97;;;0.30;81.90;;;;;;6333453;22;20623;-83
2024/01/22 02:23:04;;;;;;;4.73;3.43;;;0.30;82.10;;;;;;6330707;22;20184;-83
2024/01/22 02:25:32;;;;;;;3.90;2.87;;;0.30;82.40;;;;;;6332995;22;20250;-83
2024/01/22 02:28:01;;;;;;;2.90;1.40;;;0.30;82.50;;;;;;6333052;22;20177;-83
2024/01/22 02:30:30;;;;;;;4.13;3.17;;;0.30;82.50;;;;;;6331870;22;20662;-82
2024/01/22 02:32:58;;;;;;;2.33;2.17;;;0.30;82.70;;;;;;6331485;22;20250;-83
2024/01/22 02:35:27;;;;;;;4.00;2.03;;;0.40;82.90;;;;;;6330168;22;20183;-83
2024/01/22 02:37:55;;;;;;;3.93;2.07;;;0.40;82.70;;;;;;6333042;22;20575;-83
2024/01/22 02:40:26;;;;;;;2.10;1.97;;;0.50;82.70;;;;;;6332929;22;20216;-84
2024/01/22 02:42:54;;;;;;;3.87;3.57;;;0.40;82.10;;;;;;6329744;22;20679;-83
2024/01/22 02:45:23;;;;;;;2.43;2.23;;;0.40;81.90;;;;;;6331688;22;20203;-84
2024/01/22 02:47:51;;;;;;;4.23;3.93;;;0.50;82.00;;;;;;6335857;22;20228;-83
2024/01/22 02:50:20;;;;;;;4.73;4.30;;;0.50;82.10;;;;;;6334443;22;20175;-83
2024/01/22 02:52:49;;;;;;;1.13;1.10;;;0.50;81.60;;;;;;6331181;22;20179;-84
2024/01/22 02:55:18;;;;;;;0.87;0.87;;;0.50;81.60;;;;;;6331205;22;20209;-83
2024/01/22 02:57:50;;;;;;;1.47;1.37;;;0.50;81.60;;;;;;6336986;22;20255;-83
2024/01/22 03:00:19;;;;;;;3.50;3.27;;;0.60;81.20;;;;;;6333912;22;20165;-83
2024/01/22 03:02:47;;;;;;;2.70;2.43;;;0.60;81.30;;;;;;6335069;22;20175;-83
2024/01/22 03:05:17;;;;;;;3.80;2.33;;;0.60;81.20;;;;;;6329109;22;20569;-83
2024/01/22 03:07:45;;;;;;;3.13;2.58;;;0.60;81.10;;;;;;6334126;22;20416;-83
2024/01/22 03:10:14;;;;;;;0.87;0.87;;;0.60;81.00;;;;;;6333839;22;20241;-83
2024/01/22 03:12:43;;;;;;;1.70;1.23;;;0.60;81.00;;;;;;6335491;22;20171;-83
2024/01/22 03:15:13;;;;;;;3.27;2.80;;;0.60;80.60;;;;;;6328121;22;20334;-82
2024/01/22 03:17:42;;;;;;;3.70;3.27;;;0.60;80.10;;;;;;6332908;22;20189;-83
2024/01/22 03:20:13;;;;;;;4.40;3.97;;;0.50;79.90;;;;;;6332813;22;20552;-82
2024/01/22 03:22:42;;;;;;;4.97;3.63;;;0.50;79.90;;;;;;6332275;22;20191;-83
2024/01/22 03:25:14;;;;;;;2.93;1.40;;;0.40;79.70;;;;;;6327004;22;20255;-82
2024/01/22 03:27:42;;;;;;;2.33;2.13;;;0.40;79.70;;;;;;6334341;22;20176;-82
2024/01/22 03:30:13;;;;;;;6.60;2.23;;;0.30;79.90;;;;;;6333353;22;20168;-82
2024/01/22 03:32:42;;;;;;;5.07;2.93;;;0.30;80.20;;;;;;6334827;22;20246;-83
2024/01/22 03:35:11;;;;;;;3.63;2.53;;;0.30;80.20;;;;;;6329337;22;20172;-82
2024/01/22 03:37:40;;;;;;;2.40;2.30;;;0.30;80.10;;;;;;6333171;22;20270;-82
2024/01/22 03:40:10;;;;;;;3.73;3.43;;;0.30;80.30;;;;;;6330699;22;20164;-82
2024/01/22 03:42:38;;;;;;;1.97;1.87;;;0.20;80.30;;;;;;6335073;22;20250;-82
2024/01/22 03:45:08;;;;;;;4.00;3.70;;;0.20;80.40;;;;;;6329046;22;20189;-83
2024/01/22 03:47:38;;;;;;;2.80;2.63;;;0.20;80.50;;;;;;6333998;22;20199;-83
2024/01/22 03:50:07;;;;;;;2.23;2.03;;;0.10;80.50;;;;;;6329894;22;20260;-83
2024/01/22 03:52:36;;;;;;;3.40;2.67;;;0.10;80.60;;;;;;6333834;22;20172;-82
2024/01/22 03:55:05;;;;;;;1.73;1.63;;;0.10;80.60;;;;;;6328557;22;20240;-83
2024/01/22 03:57:34;;;;;;;2.73;2.53;;;0.00;80.60;;;;;;6335803;22;20167;-82
2024/01/22 04:00:02;;;;;;;3.37;3.07;;;0.00;80.70;;;;;;6334493;22;20630;-83
2024/01/22 04:02:34;;;;;;;4.10;2.93;;;0.00;80.80;;;;;;6332207;22;20179;-83
2024/01/22 04:05:06;;;;;;;5.50;2.57;;;0.00;80.80;;;;;;6326319;22;20192;-83
2024/01/22 04:07:35;;;;;;;7.63;4.10;;;0.00;81.00;;;;;;6333867;22;20519;-83
2024/01/22 04:10:03;;;;;;;3.13;2.73;;;0.00;81.10;;;;;;6332476;22;20174;-82
2024/01/22 04:12:32;;;;;;;6.33;5.13;;;0.00;81.30;;;;;;6334259;22;20198;-83
2024/01/22 04:15:01;;;;;;;2.43;2.23;;;0.00;81.40;;;;;;6327593;22;20179;-82
2024/01/22 04:17:29;;;;;;;3.47;3.27;;;-0.10;81.30;;;;;;6335021;22;20187;-82
2024/01/22 04:19:58;;;;;;;1.27;1.17;;;-0.10;81.30;;;;;;6332681;22;20200;-82
2024/01/22 04:22:28;;;;;;;2.30;2.10;;;-0.10;81.30;;;;;;6332132;22;20170;-83
2024/01/22 04:24:57;;;;;;;4.63;3.27;;;-0.10;81.40;;;;;;6330101;22;20175;-82
2024/01/22 04:27:25;;;;;;;6.30;4.03;;;-0.10;81.30;;;;;;6331742;22;20166;-83
2024/01/22 04:29:54;;;;;;;6.83;3.90;;;-0.10;81.30;;;;;;6332485;22;20187;-82
2024/01/22 04:32:22;;;;;;;4.83;4.27;;;-0.10;81.30;;;;;;6332224;22;20172;-82
2024/01/22 04:34:52;;;;;;;2.97;2.67;;;-0.10;81.30;;;;;;6326749;22;20618;-83
2024/01/22 04:37:21;;;;;;;2.13;2.03;;;-0.20;81.10;;;;;;6329870;22;20175;-82
2024/01/22 04:39:51;;;;;;;10.27;3.60;;;-0.20;80.90;;;;;;6331581;22;20205;-82
2024/01/22 04:42:20;;;;;;;2.67;2.17;;;-0.20;80.40;;;;;;6332248;22;20168;-81
2024/01/22 04:44:49;;;;;;;5.00;4.17;;;-0.20;80.30;;;;;;6335512;22;20174;-83
2024/01/22 04:50:00;;;;;;;5.20;2.50;;;-0.20;80.40;;;;;;6349072;22;20171;-82
2024/01/22 04:52:28;;;;;;;3.07;2.87;;;-0.30;80.30;;;;;;6332934;22;20184;-82
2024/01/22 04:54:58;;;;;;;1.73;1.63;;;-0.20;80.30;;;;;;6329073;22;20164;-82
2024/01/22 04:57:40;;;;;;;2.37;2.17;;;-0.30;80.20;;;;;;6332894;22;20488;-81
2024/01/22 05:00:10;;;;;;;5.33;2.43;;;-0.20;80.50;;;;;;6330616;22;20259;-83
2024/01/22 05:02:39;;;;;;;2.30;2.20;;;-0.20;80.50;;;;;;6332353;22;20486;-82
2024/01/22 05:05:08;;;;;;;3.70;2.97;;;-0.20;80.50;;;;;;6326280;22;20647;-81
2024/01/22 05:07:36;;;;;;;3.13;2.90;;;-0.20;80.50;;;;;;6334801;22;20250;-82
2024/01/22 05:10:09;;;;;;;3.17;2.87;;;-0.20;80.40;;;;;;6331676;22;20495;-81
2024/01/22 05:12:38;;;;;;;5.40;4.30;;;-0.20;80.40;;;;;;6332496;22;20639;-82
2024/01/22 05:15:08;;;;;;;2.60;2.17;;;-0.20;80.40;;;;;;6327617;22;20897;-80
2024/01/22 05:17:36;;;;;;;1.43;1.33;;;-0.20;80.50;;;;;;6334225;22;20168;-80
2024/01/22 05:20:06;;;;;;;4.93;4.27;;;-0.20;80.40;;;;;;6330855;22;20230;-80
2024/01/22 05:22:36;;;;;;;2.00;1.43;;;-0.10;80.50;;;;;;6333134;22;20210;-84
2024/01/22 05:25:10;;;;;;;5.70;1.40;;;-0.10;80.40;;;;;;6329101;22;20220;-84
2024/01/22 05:27:40;;;;;;;1.83;1.73;;;-0.10;80.40;;;;;;6332404;22;20487;-81
2024/01/22 05:30:10;;;;;;;3.07;1.77;;;-0.10;80.50;;;;;;6331647;22;20173;-83
2024/01/22 05:32:40;;;;;;;6.70;3.50;;;-0.10;80.50;;;;;;6332627;22;20477;-82
2024/01/22 05:35:09;;;;;;;3.30;3.00;;;-0.10;80.50;;;;;;6328550;22;20172;-84
2024/01/22 05:37:38;;;;;;;3.60;1.97;;;-0.10;80.40;;;;;;6335552;22;20175;-82
2024/01/22 05:40:13;;;;;;;2.63;2.20;;;0.00;80.40;;;;;;6330853;22;20210;-82
2024/01/22 05:42:45;;;;;;;2.13;2.03;;;-0.10;80.00;;;;;;6332598;22;20166;-83
2024/01/22 05:45:15;;;;;;;5.10;1.90;;;-0.10;79.40;;;;;;6328414;22;20170;-83
2024/01/22 05:47:43;;;;;;;1.80;1.70;;;-0.10;79.00;;;;;;6332667;22;20172;-83
2024/01/22 05:50:12;;;;;;;2.73;2.50;;;-0.10;78.80;;;;;;6333785;22;20195;-83
2024/01/22 05:52:41;;;;;;;3.10;2.87;;;-0.10;78.50;;;;;;6333589;22;20188;-85
2024/01/22 05:57:53;;;;;;;0.90;0.90;;;-0.20;77.70;;;;;;6329958;22;20175;-83
2024/01/22 06:00:22;;;;;;;1.33;1.27;;;-0.20;77.60;;;;;;6331610;22;20231;-83
2024/01/22 06:02:51;;;;;;;6.27;2.77;;;-0.20;77.70;;;;;;6331851;22;20171;-82
2024/01/22 06:05:20;;;;;;;10.10;2.40;;;-0.30;77.00;;;;;;6331024;22;20198;-83
2024/01/22 06:07:48;;;;;;;2.83;2.50;;;-0.40;76.60;;;;;;6332826;22;20177;-83
2024/01/22 06:10:18;;;;;;;7.53;5.20;;;-0.40;76.20;;;;;;6332226;22;20170;-83
2024/01/22 06:12:47;;;;;;;3.27;2.90;;;-0.50;76.30;;;;;;6334172;22;20168;-82
2024/01/22 06:15:16;;;;;;;1.90;1.80;;;-0.50;76.30;;;;;;6329696;22;20174;-83
2024/01/22 06:17:45;;;;;;;4.83;3.17;;;-0.50;76.40;;;;;;6335893;22;20626;-83
2024/01/22 06:20:13;;;;;;;4.87;4.47;;;-0.60;76.40;;;;;;6334530;22;20284;-82
2024/01/22 06:22:42;;;;;;;4.03;2.13;;;-0.60;76.70;;;;;;6335911;22;20182;-83
2024/01/22 06:25:11;;;;;;;3.57;3.27;;;-0.70;77.00;;;;;;6330797;22;20181;-82
2024/01/22 06:27:44;;;;;;;2.17;1.97;;;-0.70;77.40;;;;;;6335983;22;20254;-83
2024/01/22 06:30:15;;;;;;;3.40;3.10;;;-0.70;77.60;;;;;;6333664;22;20173;-82
2024/01/22 06:32:44;;;;;;;3.80;3.13;;;-0.80;78.20;;;;;;6336598;22;20186;-83
2024/01/22 06:35:13;;;;;;;2.77;2.57;;;-0.90;78.40;;;;;;6331316;22;20238;-82
2024/01/22 06:37:41;;;;;;;5.47;4.37;;;-0.90;78.40;;;;;;6336987;22;20664;-83
2024/01/22 06:40:10;;;;;;;1.60;1.50;;;-1.00;78.70;;;;;;6335913;22;20198;-83
2024/01/22 06:42:40;;;;;;;1.77;1.67;;;-1.00;78.90;;;;;;6334406;22;20169;-83
2024/01/22 06:45:09;;;;;;;2.93;2.73;;;-1.00;79.40;;;;;;6329625;22;20255;-82
2024/01/22 06:47:38;;;;;;;2.80;2.60;;;-1.00;79.60;;;;;;6336639;22;20171;-83
2024/01/22 06:50:07;;;;;;;6.67;3.67;;;-1.00;80.00;;;;;;6332143;22;20786;-83
2024/01/22 06:52:36;;;;;;;5.37;1.93;;;-1.10;80.40;;;;;;6335595;22;20209;-81
2024/01/22 06:55:07;;;;;;;2.70;2.50;;;-1.10;80.30;;;;;;6329362;22;20175;-82
2024/01/22 06:57:36;;;;;;;4.47;2.50;;;-1.10;80.30;;;;;;6336992;22;20503;-82
2024/01/22 07:00:08;;;;;;;5.17;3.97;;;-1.10;80.20;;;;;;6334226;22;20201;-85
2024/01/22 07:02:37;;;;;;;2.53;2.40;;;-1.10;80.50;;;;;;6336167;22;20172;-82
2024/01/22 07:05:08;;;;;;;7.70;6.93;;;-1.00;80.80;;;;;;6328776;22;21012;-81
2024/01/22 07:07:37;;;;;;;12.27;6.03;;;-1.10;81.70;;;;;;6332699;22;20245;-84
2024/01/22 07:10:07;;;;;;;2.13;1.97;;;-1.00;81.20;;;;;;6332968;22;20510;-80
2024/01/22 07:12:36;;;;;;;5.97;5.40;;;-1.00;81.50;;;;;;6335245;22;20619;-82
2024/01/22 07:15:08;;;;;;;4.53;4.05;;;-1.00;81.50;;;;;;6329822;22;20385;-85
2024/01/22 07:17:37;;;;;;;3.53;2.80;;;-1.00;81.60;;;;;;6335444;22;20171;-84
2024/01/22 07:20:08;;;;;;;6.97;4.50;;;-1.00;81.30;;;;;;6331134;22;20203;-85
2024/01/22 07:22:37;;;;;;;6.20;3.50;;;-1.00;81.10;;;;;;6333440;22;20185;-84
2024/01/22 07:25:07;;;;;;;2.37;2.20;;;-1.00;81.10;;;;;;6333782;22;20520;-82
2024/01/22 07:27:38;;;;;;;10.40;2.37;;;-1.00;80.90;;;;;;6359385;22;20227;-81
2024/01/22 07:30:11;;;;;;;6.17;3.40;;;-1.10;80.80;;;;;;6358261;22;20201;-81
2024/01/22 07:32:42;;;;;;;7.03;5.13;;;-1.10;80.50;;;;;;6352808;22;20231;-81
2024/01/22 07:35:13;;;;;;;4.33;3.37;;;-1.10;80.50;;;;;;6336012;22;20652;-83
2024/01/22 07:37:45;;;;;;;3.37;2.10;;;-1.10;80.50;;;;;;6332320;22;20170;-83
2024/01/22 07:40:28;;;;;;;2.63;2.43;;;-1.10;80.50;;;;;;6329760;22;20194;-81
2024/01/22 07:42:56;;;;;;;2.70;2.50;;;-1.10;80.30;;;;;;6330114;22;20178;-81
2024/01/22 07:45:26;;;;;;;5.50;5.00;;;-1.10;80.40;;;;;;6328825;22;20172;-81
2024/01/22 07:50:37;;;;;;;2.63;2.40;;;-1.10;80.50;;;;;;6328579;22;20206;-80
2024/01/22 07:53:06;;;;;;;3.60;1.83;;;-1.10;80.20;;;;;;6328852;22;20177;-81
2024/01/22 07:55:48;;;;;;;1.77;1.67;;;-1.10;80.20;;;;;;6328350;22;20232;-82
2024/01/22 07:58:17;;;;;;;2.73;2.57;;;-1.10;80.10;;;;;;6332390;22;20178;-81
2024/01/22 08:00:47;;;;;;;3.07;2.77;;;-1.10;79.90;;;;;;6330435;22;20205;-82
2024/01/22 08:03:15;;;;;;;3.27;2.43;;;-1.10;79.90;;;;;;6329542;22;20746;-82
2024/01/22 08:05:44;;;;;;;2.53;2.33;;;-1.00;79.70;;;;;;6328437;22;20196;-81
2024/01/22 08:11:09;;;;;;;2.53;1.73;;;-0.90;79.70;;;;;;6329210;22;20175;-82
2024/01/22 08:19:17;;;;;;;2.93;2.73;;;-0.60;79.80;;;;;;6331536;22;20274;-83
2024/01/22 08:21:59;;;;;;;1.67;1.57;;;-0.60;79.60;;;;;;6329754;22;20567;-83
2024/01/22 08:24:28;;;;;;;3.47;3.17;;;-0.60;79.50;;;;;;6331174;22;20172;-83
2024/01/22 08:26:56;;;;;;;1.33;1.23;;;-0.50;79.50;;;;;;6331808;22;20164;-83
2024/01/22 08:29:25;;;;;;;3.40;3.03;;;-0.40;79.50;;;;;;6334558;22;20172;-84
2024/01/22 08:31:55;;;;;;;2.37;1.67;;;-0.50;78.70;;;;;;6331841;22;20172;-85
2024/01/22 08:34:23;;;;;;;4.20;3.63;;;-0.40;78.60;;;;;;6332061;22;20168;-84
2024/01/22 08:36:52;;;;;;;5.40;3.13;;;-0.40;78.30;;;;;;6332105;22;20207;-83
2024/01/22 08:39:20;;;;;;;7.43;2.73;;;-0.40;78.30;;;;;;6332777;22;20179;-84
2024/01/22 08:41:49;;;;;;;1.60;1.50;;;-0.40;78.00;;;;;;6330655;22;20213;-84
2024/01/22 08:44:17;;;;;;;5.93;4.87;;;-0.40;78.20;;;;;;6332112;22;20169;-84
2024/01/22 08:47:02;;;;;;;3.90;2.60;;;-0.30;78.40;;;;;;6330467;22;20194;-85
2024/01/22 08:49:45;;;;;;;2.70;2.50;;;-0.20;78.10;;;;;;6332330;22;20167;-83
2024/01/22 08:52:14;;;;;;;1.87;1.77;;;-0.20;77.70;;;;;;6330597;22;20174;-84
2024/01/22 08:54:42;;;;;;;5.67;3.30;;;-0.20;77.60;;;;;;6331669;22;20256;-83
2024/01/22 08:57:11;;;;;;;1.53;1.50;;;-0.20;77.60;;;;;;6331099;22;20915;-82
2024/01/22 08:59:40;;;;;;;4.97;2.60;;;-0.10;77.90;;;;;;6333725;22;20553;-82
2024/01/22 09:02:09;;;;;;;6.47;5.13;;;0.00;78.60;;;;;;6332740;22;20790;-84
2024/01/22 09:04:38;;;;;;;5.13;4.13;;;0.00;78.10;;;;;;6334073;22;20168;-83
2024/01/22 09:10:05;;;;;;;2.60;2.17;;;0.10;78.00;;;;;;6330065;22;20658;-83
2024/01/22 09:12:33;;;;;;;11.70;5.17;;;0.20;78.00;;;;;;6331844;22;20204;-82
2024/01/22 09:15:02;;;;;;;5.47;4.43;;;0.20;77.70;;;;;;6327136;22;20168;-82
2024/01/22 09:17:47;;;;;;;4.07;2.77;;;0.30;77.70;;;;;;6331644;22;20167;-83
2024/01/22 09:20:16;;;;;;;3.93;1.67;;;0.20;77.10;;;;;;6329329;22;20207;-84
2024/01/22 09:25:54;;;;;;;6.70;1.60;;;0.30;76.40;;;;;;6328419;22;20243;-83
2024/01/22 09:28:36;;;;;;;3.40;1.97;;;0.30;76.60;;;;;;6328301;22;20504;-83
2024/01/22 09:31:05;;;;;;;8.57;4.13;;;0.40;76.50;;;;;;6331058;22;20168;-83
2024/01/22 09:34:04;;;;;;;7.53;3.70;;;0.40;76.50;;;;;;6327381;22;20164;-83
2024/01/22 09:36:46;;;;;;;3.83;3.53;;;0.50;76.70;;;;;;6329503;22;20164;-82
2024/01/22 09:41:57;;;;;;;2.50;2.30;;;0.50;77.20;;;;;;6328984;22;20682;-82
2024/01/22 09:44:26;;;;;;;1.77;1.67;;;0.60;77.10;;;;;;6330730;22;20511;-82
2024/01/22 09:46:55;;;;;;;3.67;3.27;;;0.70;77.20;;;;;;6330931;22;20170;-82
2024/01/22 09:49:40;;;;;;;3.70;2.30;;;0.80;77.40;;;;;;6333058;22;20173;-83
2024/01/22 09:52:13;;;;;;;2.77;2.60;;;0.90;76.50;;;;;;6330726;22;20166;-85
2024/01/22 09:54:43;;;;;;;2.80;2.60;;;0.90;76.00;;;;;;6334341;22;20644;-90
2024/01/22 10:00:12;;;;;;;1.30;1.27;;;1.00;76.10;;;;;;6332181;22;20179;-85
2024/01/22 10:02:41;;;;;;;7.20;2.67;;;1.10;76.30;;;;;;6335346;22;20213;-85
2024/01/22 10:05:11;;;;;;;3.63;2.73;;;1.20;76.30;;;;;;6332121;22;20197;-85
2024/01/22 10:07:40;;;;;;;3.43;2.93;;;1.20;76.40;;;;;;6335347;22;20266;-84
2024/01/22 10:10:09;;;;;;;4.47;3.63;;;1.30;76.00;;;;;;6341669;22;20198;-86
2024/01/22 10:19:00;;;;;;;2.17;1.97;;;1.40;76.00;;;;;;6331215;22;20191;-82
2024/01/22 10:21:30;;;;;;;5.47;3.87;;;1.50;76.10;;;;;;6333925;22;20559;-86
2024/01/22 10:24:00;;;;;;;2.93;2.73;;;1.60;76.00;;;;;;6330953;22;20170;-85
2024/01/22 10:26:30;;;;;;;10.60;3.40;;;1.60;75.40;;;;;;6334365;22;20166;-86
2024/01/22 10:29:15;;;;;;;5.17;4.73;;;1.60;75.00;;;;;;6333763;22;20649;-84
2024/01/22 10:31:57;;;;;;;3.23;2.97;;;1.70;75.20;;;;;;6334038;22;20176;-85
2024/01/22 10:34:28;;;;;;;4.37;3.97;;;1.70;75.20;;;;;;6332085;22;20171;-85
2024/01/22 10:37:08;;;;;;;6.70;3.40;;;1.80;75.50;;;;;;6334934;22;20484;-85
2024/01/22 10:39:38;;;;;;;6.23;2.70;;;1.80;75.40;;;;;;6335405;22;20175;-84
2024/01/22 10:42:11;;;;;;;2.43;2.23;;;1.90;75.30;;;;;;6334005;22;20497;-86
2024/01/22 10:47:23;;;;;;;5.83;3.50;;;1.90;74.70;;;;;;6333206;22;20220;-84
2024/01/22 10:49:54;;;;;;;2.67;2.10;;;2.00;74.90;;;;;;6329445;22;20221;-85
2024/01/22 10:52:26;;;;;;;3.87;3.57;;;2.00;74.90;;;;;;6332699;22;20174;-85
2024/01/22 10:54:55;;;;;;;6.20;5.60;;;2.00;74.90;;;;;;6331101;22;20577;-85
2024/01/22 10:57:43;;;;;;;9.10;3.73;;;2.00;74.60;;;;;;6334555;22;20167;-85
2024/01/22 11:00:15;;;;;;;5.93;3.97;;;2.10;75.00;;;;;;6334304;22;20174;-84
2024/01/22 11:02:49;;;;;;;5.13;4.63;;;2.10;74.90;;;;;;6334332;22;20199;-83
2024/01/22 11:05:19;;;;;;;4.63;3.80;;;2.10;74.60;;;;;;6331732;22;20199;-84
2024/01/22 11:07:52;;;;;;;3.67;3.27;;;2.20;74.50;;;;;;6333848;22;20231;-84
2024/01/22 11:10:23;;;;;;;2.00;1.70;;;2.10;74.30;;;;;;6334351;22;20174;-85
2024/01/22 11:12:54;;;;;;;3.73;3.03;;;2.20;74.60;;;;;;6334177;22;20170;-84
2024/01/22 11:15:23;;;;;;;3.23;2.93;;;2.10;74.30;;;;;;6331164;22;20250;-84
2024/01/22 11:17:52;;;;;;;5.37;4.90;;;2.30;74.70;;;;;;6333217;22;20175;-84
2024/01/22 11:20:22;;;;;;;3.80;2.67;;;2.30;75.00;;;;;;6331777;22;20169;-83
2024/01/22 11:23:02;;;;;;;6.30;2.60;;;2.30;74.80;;;;;;6331179;22;20222;-85
2024/01/22 11:25:31;;;;;;;4.63;2.70;;;2.30;75.00;;;;;;6330241;22;20635;-85
2024/01/22 11:28:03;;;;;;;5.23;2.53;;;2.40;75.00;;;;;;6331504;22;20701;-84
2024/01/22 11:30:36;;;;;;;4.70;3.63;;;2.40;75.20;;;;;;6338475;22;20718;-84
2024/01/22 11:33:33;;;;;;;3.80;3.03;;;2.50;75.20;;;;;;6329945;22;20162;-83
2024/01/22 11:36:02;;;;;;;3.07;2.73;;;2.50;74.30;;;;;;6331346;22;20172;-85
2024/01/22 11:38:56;;;;;;;3.10;2.90;;;2.60;74.40;;;;;;6334840;22;20546;-84
2024/01/22 11:41:32;;;;;;;2.87;2.67;;;2.60;74.40;;;;;;6333847;22;20173;-84
2024/01/22 11:44:02;;;;;;;4.00;3.63;;;2.60;74.50;;;;;;6330978;22;20557;-84
2024/01/22 11:46:31;;;;;;;3.20;2.30;;;2.70;74.20;;;;;;6334042;22;20168;-84
2024/01/22 11:49:09;;;;;;;6.70;2.73;;;2.70;74.10;;;;;;6333430;22;20486;-84
2024/01/22 11:51:38;;;;;;;2.27;2.07;;;2.60;74.20;;;;;;6332149;22;20202;-85
2024/01/22 11:54:09;;;;;;;2.20;1.53;;;2.70;74.30;;;;;;6328931;22;20675;-85
2024/01/22 11:56:38;;;;;;;2.80;2.60;;;2.70;73.90;;;;;;6331543;22;20168;-84
2024/01/22 11:59:06;;;;;;;2.73;2.53;;;2.80;74.00;;;;;;6333241;22;20192;-85
2024/01/22 12:01:35;;;;;;;2.47;2.27;;;2.90;74.40;;;;;;6335380;22;20175;-83
2024/01/22 12:04:09;;;;;;;1.90;1.80;;;2.90;74.10;;;;;;6331076;22;20224;-83
2024/01/22 12:06:49;;;;;;;6.83;2.43;;;2.90;74.20;;;;;;6334872;22;20192;-84
2024/01/22 12:09:20;;;;;;;3.33;2.93;;;3.00;74.40;;;;;;6334331;22;20231;-84
2024/01/22 12:11:54;;;;;;;2.33;2.13;;;2.90;73.90;;;;;;6334035;22;20164;-83
2024/01/22 12:20:11;;;;;;;4.73;3.67;;;3.10;73.80;;;;;;6334219;22;20172;-80
2024/01/22 12:22:43;;;;;;;5.93;4.23;;;3.20;74.20;;;;;;6333421;22;20195;-80
2024/01/22 12:25:13;;;;;;;2.27;2.07;;;3.20;73.70;;;;;;6331420;22;20225;-79
2024/01/22 12:27:42;;;;;;;3.92;2.70;;;3.10;73.40;;;;;;6335520;22;20381;-81
2024/01/22 12:30:14;;;;;;;4.00;2.53;;;3.30;73.90;;;;;;6328338;22;20574;-79
2024/01/22 12:32:53;;;;;;;2.63;2.43;;;3.30;74.20;;;;;;6333055;22;20198;-81
2024/01/22 12:35:23;;;;;;;4.23;2.10;;;3.40;74.10;;;;;;6331048;22;20504;-82
2024/01/22 12:38:11;;;;;;;2.77;2.10;;;3.30;73.70;;;;;;6330724;22;20675;-80
2024/01/22 12:40:42;;;;;;;1.47;1.37;;;3.40;73.70;;;;;;6331518;22;20164;-81
2024/01/22 12:46:09;;;;;;;3.80;2.97;;;3.50;73.40;;;;;;6331535;22;20346;-80
2024/01/22 12:48:38;;;;;;;2.90;2.70;;;3.40;73.80;;;;;;6334176;22;20209;-79
2024/01/22 12:51:09;;;;;;;2.77;2.57;;;3.40;72.90;;;;;;6334211;22;20172;-81
2024/01/22 12:53:52;;;;;;;5.47;4.97;;;3.40;73.00;;;;;;6333449;22;20211;-80
2024/01/22 12:56:35;;;;;;;3.90;3.63;;;3.50;73.20;;;;;;6340487;22;20160;-80
2024/01/22 12:59:04;;;;;;;3.60;2.47;;;3.50;72.90;;;;;;6345444;22;20604;-82
2024/01/22 13:01:32;;;;;;;2.73;2.47;;;3.50;72.70;;;;;;6339602;22;20640;-81
2024/01/22 13:04:16;;;;;;;4.33;2.97;;;3.50;72.70;;;;;;6327706;22;20200;-82
2024/01/22 13:06:45;;;;;;;1.13;1.13;;;3.40;72.80;;;;;;6333837;22;20196;-83
2024/01/22 13:09:13;;;;;;;1.50;1.10;;;3.40;73.30;;;;;;6340048;22;20917;-82
2024/01/22 13:11:46;;;;;;;6.67;3.10;;;3.50;74.70;;;;;;6333166;22;20203;-81
2024/01/22 13:14:15;;;;;;;5.23;3.03;;;3.40;73.90;;;;;;6329826;22;20211;-80
2024/01/22 13:16:44;;;;;;;3.40;3.10;;;3.20;74.10;;;;;;6331949;22;20695;-81
2024/01/22 13:19:12;;;;;;;2.63;2.43;;;3.10;74.30;;;;;;6332433;22;20260;-82
2024/01/22 13:21:41;;;;;;;9.87;3.13;;;2.90;74.70;;;;;;6333362;22;20168;-81
2024/01/22 13:24:10;;;;;;;3.30;1.53;;;2.90;75.10;;;;;;6329473;22;20253;-81
2024/01/22 13:26:38;;;;;;;3.27;3.03;;;2.60;75.40;;;;;;6329740;22;20473;-80
2024/01/22 13:29:23;;;;;;;2.73;2.53;;;2.60;75.50;;;;;;6330945;22;20176;-80
2024/01/22 13:31:53;;;;;;;3.27;2.97;;;2.70;75.80;;;;;;6331860;22;20178;-81
2024/01/22 13:34:21;;;;;;;3.20;3.00;;;2.50;76.10;;;;;;6330172;22;20171;-80
2024/01/22 13:37:04;;;;;;;3.90;2.40;;;2.50;76.60;;;;;;6331188;22;20167;-82
2024/01/22 13:39:33;;;;;;;7.63;3.30;;;2.40;76.70;;;;;;6333328;22;20196;-81
2024/01/22 13:45:15;;;;;;;3.20;1.57;;;2.30;77.40;;;;;;6331751;22;20167;-82
2024/01/22 13:47:57;;;;;;;5.37;3.43;;;2.30;77.60;;;;;;6342518;22;20233;-81
2024/01/22 13:53:10;;;;;;;2.67;1.80;;;2.20;78.20;;;;;;6328775;22;20761;-81
2024/01/22 13:55:38;;;;;;;2.30;2.20;;;2.20;78.40;;;;;;6332570;22;20171;-79
2024/01/22 13:58:07;;;;;;;2.07;1.83;;;2.20;78.60;;;;;;6328399;22;20179;-81
2024/01/22 14:01:19;;;;;;;3.42;2.35;;;2.00;78.80;;;;;;6328279;22;20382;-79
2024/01/22 14:04:03;;;;;;;3.10;1.73;;;2.00;79.10;;;;;;6328740;22;20718;-81